Time;durP1;ratioP1;P1;durP2;ratioP2;P2;SDS_P1;SDS_P2;PMS_P1;PMS_P2;Temp;Humidity;BMP_temperature;BMP_pressure;BME280_temperature;BME280_humidity;BME280_pressure;Samples;Min_cycle;Max_cycle;Signal;HPM_P1;HPM_P2
2024/01/19 00:00:20;;;;;;;63.33;38.75;;;;;;;2.17;100.00;98142.06;5060042;28;20035;-73
2024/01/19 00:02:45;;;;;;;66.35;38.80;;;;;;;2.23;100.00;98144.19;5062085;28;20032;-74
2024/01/19 00:05:11;;;;;;;60.13;36.70;;;;;;;2.25;100.00;98148.28;5060416;28;20044;-73
2024/01/19 00:07:36;;;;;;;59.00;35.85;;;;;;;2.24;100.00;98144.03;5053150;28;20025;-74
2024/01/19 00:10:02;;;;;;;54.70;33.88;;;;;;;2.27;100.00;98140.38;5059024;28;20032;-73
2024/01/19 00:12:35;;;;;;;58.47;36.08;;;;;;;2.31;100.00;98141.75;5061061;28;20040;-72
2024/01/19 00:15:01;;;;;;;59.53;34.97;;;;;;;2.37;100.00;98136.03;5043138;28;20061;-73
2024/01/19 00:17:26;;;;;;;54.30;34.78;;;;;;;2.40;100.00;98135.81;5058359;28;20458;-73
2024/01/19 00:19:52;;;;;;;51.80;33.45;;;;;;;2.39;100.00;98134.97;5060394;28;20496;-74
2024/01/19 00:22:17;;;;;;;55.03;33.67;;;;;;;2.41;100.00;98119.25;5060542;28;20393;-73
2024/01/19 00:24:43;;;;;;;49.42;32.55;;;;;;;2.42;100.00;98128.69;5061915;28;20025;-73
2024/01/19 00:27:08;;;;;;;49.55;33.30;;;;;;;2.46;100.00;98130.94;5062196;28;20427;-73
2024/01/19 00:29:34;;;;;;;46.08;29.90;;;;;;;2.47;100.00;98131.75;5059269;28;20171;-73
2024/01/19 00:31:59;;;;;;;44.95;30.73;;;;;;;2.48;100.00;98128.19;5060116;28;20055;-73
2024/01/19 00:34:25;;;;;;;40.75;29.58;;;;;;;2.51;100.00;98142.72;5059522;28;20862;-73
2024/01/19 00:36:50;;;;;;;46.72;30.40;;;;;;;2.51;100.00;98143.56;5056294;28;20029;-73
2024/01/19 00:39:15;;;;;;;45.10;31.20;;;;;;;2.52;100.00;98155.63;5053014;28;20029;-73
2024/01/19 00:41:42;;;;;;;43.88;29.00;;;;;;;2.49;100.00;98155.88;5058324;28;20037;-73
2024/01/19 00:44:07;;;;;;;45.40;30.55;;;;;;;2.50;100.00;98162.72;5059046;28;20048;-74
2024/01/19 00:46:33;;;;;;;41.65;29.20;;;;;;;2.52;100.00;98137.41;5061332;28;20604;-72
2024/01/19 00:48:58;;;;;;;45.92;30.45;;;;;;;2.53;100.00;98157.28;5059618;28;20143;-74
2024/01/19 00:51:23;;;;;;;47.78;31.13;;;;;;;2.47;100.00;98147.38;5061541;28;20067;-73
2024/01/19 00:53:49;;;;;;;46.88;31.48;;;;;;;2.45;100.00;98160.50;5058874;28;20093;-73
2024/01/19 00:56:15;;;;;;;51.35;33.08;;;;;;;2.45;100.00;98183.13;5060871;28;20033;-74
2024/01/19 00:58:42;;;;;;;45.97;31.23;;;;;;;2.34;100.00;98188.38;5061514;28;20040;-72
2024/01/19 01:01:07;;;;;;;49.08;31.42;;;;;;;2.15;100.00;98211.63;5058462;28;20020;-74
2024/01/19 01:03:33;;;;;;;47.97;32.08;;;;;;;2.06;100.00;98214.00;5059787;28;20039;-74
2024/01/19 01:06:03;;;;;;;51.33;32.92;;;;;;;2.08;100.00;98203.47;5060121;28;20237;-74
2024/01/19 01:08:29;;;;;;;47.83;31.92;;;;;;;2.10;100.00;98200.75;5057921;28;20044;-74
2024/01/19 01:10:55;;;;;;;49.85;32.58;;;;;;;2.16;100.00;98192.47;5060997;28;20120;-73
2024/01/19 01:13:21;;;;;;;44.35;30.15;;;;;;;2.12;100.00;98206.69;5061234;28;20028;-73
2024/01/19 01:15:47;;;;;;;45.25;30.45;;;;;;;2.01;100.00;98204.91;5059087;28;20036;-73
2024/01/19 01:18:12;;;;;;;47.83;31.30;;;;;;;2.03;100.00;98201.25;5055646;28;20039;-73
2024/01/19 01:20:38;;;;;;;51.58;34.00;;;;;;;1.93;100.00;98218.53;5061021;28;20028;-74
2024/01/19 01:23:04;;;;;;;53.25;33.92;;;;;;;1.96;100.00;98223.50;5058394;28;20032;-74
2024/01/19 01:25:30;;;;;;;50.17;32.67;;;;;;;2.09;100.00;98231.16;5060854;28;20094;-74
2024/01/19 01:27:56;;;;;;;50.10;33.55;;;;;;;2.04;100.00;98238.50;5058848;28;20029;-74
2024/01/19 01:30:22;;;;;;;50.03;33.13;;;;;;;2.12;100.00;98250.91;5058311;28;20031;-73
2024/01/19 01:32:47;;;;;;;51.35;33.15;;;;;;;2.01;100.00;98239.56;5060878;28;20461;-73
2024/01/19 01:35:13;;;;;;;53.33;33.53;;;;;;;2.04;100.00;98252.34;5058444;28;20082;-73
2024/01/19 01:37:38;;;;;;;48.67;32.20;;;;;;;2.02;100.00;98258.59;5051488;28;20577;-73
2024/01/19 01:40:06;;;;;;;46.88;31.25;;;;;;;2.07;100.00;98248.66;5060262;28;20128;-74
2024/01/19 01:42:31;;;;;;;45.55;31.60;;;;;;;1.85;100.00;98262.53;5059498;28;20079;-73
2024/01/19 01:44:58;;;;;;;46.33;31.65;;;;;;;1.83;100.00;98261.81;5060871;28;20028;-73
2024/01/19 01:47:23;;;;;;;46.22;30.67;;;;;;;1.68;100.00;98252.63;5061042;28;20256;-73
2024/01/19 01:49:49;;;;;;;46.78;30.25;;;;;;;1.76;100.00;98249.44;5059784;28;20593;-73
2024/01/19 01:52:14;;;;;;;43.55;29.55;;;;;;;1.84;100.00;98253.06;5060402;28;20095;-74
2024/01/19 01:54:40;;;;;;;45.97;31.90;;;;;;;1.84;100.00;98257.44;5058401;28;20438;-73
2024/01/19 01:57:06;;;;;;;43.75;29.77;;;;;;;1.85;100.00;98265.13;5058402;28;20481;-73
2024/01/19 01:59:32;;;;;;;42.55;29.17;;;;;;;1.87;100.00;98278.84;5060298;28;20036;-73
2024/01/19 02:01:57;;;;;;;43.38;29.08;;;;;;;1.82;100.00;98291.41;5058096;28;20469;-72
2024/01/19 02:04:24;;;;;;;37.90;27.42;;;;;;;1.74;100.00;98288.53;5063403;28;20111;-73
2024/01/19 02:06:49;;;;;;;40.97;28.17;;;;;;;1.50;100.00;98290.44;5060625;28;20440;-73
2024/01/19 02:09:16;;;;;;;40.17;27.52;;;;;;;1.41;100.00;98285.94;5063995;28;20150;-74
2024/01/19 02:11:42;;;;;;;42.88;28.83;;;;;;;1.27;100.00;98293.94;5064191;28;20028;-73
2024/01/19 02:14:09;;;;;;;41.42;27.77;;;;;;;1.40;100.00;98299.88;5061443;28;20507;-74
2024/01/19 02:16:35;;;;;;;40.03;27.60;;;;;;;1.41;100.00;98293.75;5060173;28;20113;-74
2024/01/19 02:19:00;;;;;;;41.92;29.05;;;;;;;1.42;100.00;98297.97;5063782;28;20584;-74
2024/01/19 02:21:26;;;;;;;44.72;30.70;;;;;;;1.46;100.00;98283.81;5060728;28;20058;-74
2024/01/19 02:24:01;;;;;;;41.80;28.92;;;;;;;1.48;100.00;98287.09;5064221;28;20131;-74
2024/01/19 02:26:28;;;;;;;39.08;27.38;;;;;;;1.50;100.00;98298.22;5061889;28;20455;-74
2024/01/19 02:28:54;;;;;;;42.33;28.92;;;;;;;1.45;100.00;98301.19;5062655;28;20043;-74
2024/01/19 02:31:19;;;;;;;44.67;28.88;;;;;;;1.47;100.00;98306.28;5063410;28;20469;-73
2024/01/19 02:33:44;;;;;;;59.10;28.10;;;;;;;1.35;100.00;98302.00;5061718;28;20037;-73
2024/01/19 02:36:11;;;;;;;39.70;26.88;;;;;;;1.28;100.00;98322.41;5058305;28;20028;-73
2024/01/19 02:38:37;;;;;;;43.15;28.20;;;;;;;1.16;100.00;98298.19;5064390;28;20550;-73
2024/01/19 02:41:02;;;;;;;52.72;30.02;;;;;;;1.13;100.00;98308.78;5061542;28;20040;-73
2024/01/19 02:43:27;;;;;;;55.85;28.83;;;;;;;1.10;100.00;98303.00;5061124;28;20046;-72
2024/01/19 02:45:53;;;;;;;46.72;29.25;;;;;;;1.04;100.00;98303.44;5063739;28;20056;-73
2024/01/19 02:48:18;;;;;;;44.67;28.75;;;;;;;1.02;100.00;98320.91;5061149;28;20044;-73
2024/01/19 02:50:44;;;;;;;40.83;28.98;;;;;;;0.99;100.00;98306.41;5062265;28;20496;-73
2024/01/19 02:53:09;;;;;;;42.75;28.52;;;;;;;0.94;100.00;98305.91;5052465;28;20028;-72
2024/01/19 02:55:34;;;;;;;40.05;29.42;;;;;;;1.00;100.00;98302.03;5062882;28;20484;-73
2024/01/19 02:58:00;;;;;;;45.88;31.05;;;;;;;1.09;100.00;98289.19;5063773;28;20029;-73
2024/01/19 03:00:25;;;;;;;42.92;30.30;;;;;;;1.19;100.00;98297.94;5059797;28;20559;-73
2024/01/19 03:02:51;;;;;;;41.28;29.23;;;;;;;1.24;100.00;98293.22;5062570;28;20489;-73
2024/01/19 03:05:16;;;;;;;41.33;28.30;;;;;;;1.13;100.00;98308.78;5063576;28;20122;-73
2024/01/19 03:07:42;;;;;;;38.90;27.40;;;;;;;1.10;100.00;98298.63;5059908;28;20598;-73
2024/01/19 03:10:08;;;;;;;38.00;26.67;;;;;;;1.05;100.00;98300.75;5061668;28;20036;-74
2024/01/19 03:12:33;;;;;;;39.38;27.30;;;;;;;1.03;100.00;98291.41;5062429;28;20166;-73
2024/01/19 03:14:58;;;;;;;37.00;27.08;;;;;;;1.01;100.00;98307.09;5060264;28;20045;-73
2024/01/19 03:17:26;;;;;;;37.30;26.65;;;;;;;0.99;100.00;98311.59;5062799;28;20049;-74
2024/01/19 03:19:51;;;;;;;37.08;26.05;;;;;;;0.99;100.00;98321.97;5058925;28;20033;-74
2024/01/19 03:22:17;;;;;;;36.88;27.02;;;;;;;0.95;100.00;98302.34;5061217;28;20086;-74
2024/01/19 03:24:42;;;;;;;36.83;26.15;;;;;;;0.80;100.00;98316.47;5061010;28;20047;-73
2024/01/19 03:27:07;;;;;;;39.20;28.55;;;;;;;0.79;100.00;98310.44;5059371;28;20469;-73
2024/01/19 03:29:33;;;;;;;42.95;26.95;;;;;;;0.83;100.00;98311.03;5060537;28;20033;-74
2024/01/19 03:31:59;;;;;;;39.10;27.02;;;;;;;0.87;100.00;98312.50;5056480;28;20043;-73
2024/01/19 03:34:25;;;;;;;41.50;27.45;;;;;;;0.87;100.00;98309.91;5058930;28;20449;-72
2024/01/19 03:36:51;;;;;;;40.30;26.40;;;;;;;0.82;100.00;98317.19;5062781;28;20041;-73
2024/01/19 03:39:17;;;;;;;39.92;28.33;;;;;;;0.85;100.00;98303.97;5059731;28;20033;-72
2024/01/19 03:41:43;;;;;;;42.22;27.63;;;;;;;0.90;100.00;98314.03;5061620;28;20027;-73
2024/01/19 03:44:08;;;;;;;51.35;28.08;;;;;;;0.92;100.00;98325.13;5061705;28;20062;-73
2024/01/19 03:46:35;;;;;;;44.60;27.23;;;;;;;0.83;100.00;98317.06;5062225;28;20205;-73
2024/01/19 03:49:06;;;;;;;38.03;27.05;;;;;;;0.83;100.00;98316.22;5058453;28;20041;-73
2024/01/19 03:51:32;;;;;;;44.75;27.42;;;;;;;0.80;100.00;98327.69;5058805;28;20851;-74
2024/01/19 03:53:57;;;;;;;41.88;29.08;;;;;;;0.79;100.00;98314.81;5060461;28;20491;-72
2024/01/19 03:56:24;;;;;;;42.67;29.02;;;;;;;0.84;100.00;98320.50;5061175;28;20040;-74
2024/01/19 03:58:50;;;;;;;40.05;27.52;;;;;;;0.78;100.00;98310.56;5061742;28;20048;-74
2024/01/19 04:01:15;;;;;;;38.92;28.27;;;;;;;0.83;100.00;98317.06;5059926;28;20036;-73
2024/01/19 04:03:41;;;;;;;40.13;28.35;;;;;;;0.89;100.00;98333.97;5060223;28;20043;-72
2024/01/19 04:06:06;;;;;;;46.45;26.95;;;;;;;0.90;100.00;98333.03;5059024;28;20040;-71
2024/01/19 04:08:32;;;;;;;42.17;28.08;;;;;;;0.89;100.00;98330.53;5057791;28;20025;-73
2024/01/19 04:10:57;;;;;;;41.40;28.10;;;;;;;0.82;100.00;98320.59;5058316;28;20031;-72
2024/01/19 04:13:23;;;;;;;47.65;29.65;;;;;;;0.83;100.00;98331.81;5060574;28;20063;-73
2024/01/19 04:15:48;;;;;;;40.70;27.73;;;;;;;0.88;100.00;98334.09;5052688;28;20146;-74
2024/01/19 04:18:14;;;;;;;35.50;26.58;;;;;;;0.90;100.00;98333.03;5058751;28;20078;-74
2024/01/19 04:20:39;;;;;;;36.67;26.33;;;;;;;0.89;100.00;98328.78;5060365;28;20029;-74
2024/01/19 04:23:04;;;;;;;36.05;26.45;;;;;;;0.85;100.00;98319.56;5058625;28;20020;-74
2024/01/19 04:25:30;;;;;;;37.63;27.10;;;;;;;0.79;100.00;98320.00;5061566;28;20043;-74
2024/01/19 04:27:55;;;;;;;37.65;27.25;;;;;;;0.78;100.00;98318.34;5059571;28;20021;-72
2024/01/19 04:30:21;;;;;;;37.60;26.73;;;;;;;0.69;100.00;98322.44;5060425;28;20556;-72
2024/01/19 04:32:46;;;;;;;38.08;27.25;;;;;;;0.71;100.00;98317.97;5061622;28;20024;-72
2024/01/19 04:35:11;;;;;;;34.42;26.55;;;;;;;0.67;100.00;98315.69;5057416;28;20067;-73
2024/01/19 04:37:37;;;;;;;36.47;26.48;;;;;;;0.75;100.00;98314.22;5059476;28;20035;-72
2024/01/19 04:40:03;;;;;;;33.50;25.48;;;;;;;0.81;100.00;98307.75;5060874;28;20024;-73
2024/01/19 04:42:28;;;;;;;34.83;25.77;;;;;;;0.89;100.00;98313.19;5058432;28;20119;-72
2024/01/19 04:44:54;;;;;;;30.27;24.55;;;;;;;0.88;100.00;98316.75;5061774;28;20078;-72
2024/01/19 04:47:19;;;;;;;32.63;24.77;;;;;;;0.87;100.00;98322.88;5058413;28;20374;-73
2024/01/19 04:49:45;;;;;;;31.17;24.00;;;;;;;0.90;100.00;98322.63;5060434;28;20032;-73
2024/01/19 04:52:10;;;;;;;32.50;24.17;;;;;;;0.86;100.00;98326.41;5060772;28;20116;-73
2024/01/19 04:54:35;;;;;;;29.98;23.92;;;;;;;0.82;100.00;98320.59;5057062;28;20029;-73
2024/01/19 04:57:01;;;;;;;29.90;23.23;;;;;;;0.79;100.00;98322.59;5057415;28;20061;-72
2024/01/19 04:59:27;;;;;;;31.20;24.30;;;;;;;0.80;100.00;98313.88;5060500;28;20025;-73
2024/01/19 05:01:52;;;;;;;32.28;24.77;;;;;;;0.75;100.00;98318.59;5059207;28;20087;-73
2024/01/19 05:04:18;;;;;;;31.73;24.30;;;;;;;0.71;100.00;98327.50;5062374;28;20020;-73
2024/01/19 05:06:44;;;;;;;31.02;23.75;;;;;;;0.64;100.00;98332.34;5057497;28;20090;-73
2024/01/19 05:09:09;;;;;;;31.30;23.88;;;;;;;0.61;100.00;98336.91;5057840;28;20020;-73
2024/01/19 05:11:35;;;;;;;33.55;24.48;;;;;;;0.65;100.00;98335.78;5060757;28;20545;-73
2024/01/19 05:14:02;;;;;;;34.38;25.48;;;;;;;0.65;100.00;98343.56;5057202;28;20036;-73
2024/01/19 05:16:28;;;;;;;32.92;24.77;;;;;;;0.63;100.00;98345.44;5059089;28;20115;-74
2024/01/19 05:18:53;;;;;;;34.50;24.75;;;;;;;0.65;100.00;98352.16;5059280;28;20120;-74
2024/01/19 05:21:19;;;;;;;37.42;25.90;;;;;;;0.70;100.00;98349.25;5057382;28;20560;-73
2024/01/19 05:23:44;;;;;;;33.80;25.13;;;;;;;0.71;100.00;98341.31;5062867;28;20029;-74
2024/01/19 05:26:10;;;;;;;37.15;26.77;;;;;;;0.79;100.00;98352.00;5057255;28;20071;-74
2024/01/19 05:28:36;;;;;;;36.78;25.10;;;;;;;0.82;100.00;98343.97;5060042;28;20515;-73
2024/01/19 05:31:02;;;;;;;34.88;26.05;;;;;;;0.90;100.00;98348.63;5060080;28;20041;-72
2024/01/19 05:33:30;;;;;;;34.05;26.38;;;;;;;0.95;100.00;98354.28;5057273;28;20103;-73
2024/01/19 05:35:56;;;;;;;32.33;25.13;;;;;;;1.01;100.00;98356.44;5057222;28;20033;-73
2024/01/19 05:38:22;;;;;;;34.88;25.33;;;;;;;1.05;100.00;98360.50;5058305;28;20036;-73
2024/01/19 05:40:47;;;;;;;33.10;25.90;;;;;;;1.05;100.00;98373.50;5057634;28;20150;-76
2024/01/19 05:43:13;;;;;;;34.03;23.67;;;;;;;1.02;100.00;98373.69;5054523;28;20052;-75
2024/01/19 05:45:38;;;;;;;36.10;25.45;;;;;;;1.02;100.00;98368.50;5058009;28;20029;-75
2024/01/19 05:48:04;;;;;;;35.38;25.05;;;;;;;1.00;100.00;98367.78;5057496;28;20485;-75
2024/01/19 05:50:30;;;;;;;34.50;24.75;;;;;;;1.00;100.00;98370.38;5057709;28;20079;-73
2024/01/19 05:52:57;;;;;;;35.25;25.60;;;;;;;1.03;100.00;98375.34;5055245;28;20052;-74
2024/01/19 05:55:23;;;;;;;35.50;25.48;;;;;;;1.10;100.00;98368.78;5057231;28;20623;-74
2024/01/19 05:57:48;;;;;;;35.65;24.98;;;;;;;1.05;100.00;98373.50;5058887;28;20017;-73
2024/01/19 06:00:14;;;;;;;35.72;26.58;;;;;;;1.06;100.00;98377.72;5059622;28;20037;-74
2024/01/19 06:02:39;;;;;;;35.67;24.92;;;;;;;1.09;100.00;98380.09;5054797;28;20515;-75
2024/01/19 06:05:07;;;;;;;35.92;24.77;;;;;;;1.11;100.00;98382.59;5056952;28;20068;-73
2024/01/19 06:07:33;;;;;;;36.22;26.42;;;;;;;1.16;100.00;98386.50;5054131;28;20029;-74
2024/01/19 06:09:58;;;;;;;36.30;24.92;;;;;;;1.20;100.00;98393.13;5050694;28;20059;-76
2024/01/19 06:12:24;;;;;;;35.88;25.95;;;;;;;1.28;100.00;98399.53;5059072;28;20040;-75
2024/01/19 06:14:49;;;;;;;34.92;25.38;;;;;;;1.32;100.00;98390.56;5056888;28;20370;-74
2024/01/19 06:17:15;;;;;;;37.13;24.80;;;;;;;1.35;100.00;98396.41;5055104;28;20045;-73
2024/01/19 06:19:41;;;;;;;39.25;25.33;;;;;;;1.39;100.00;98409.97;5054289;28;20037;-74
2024/01/19 06:22:07;;;;;;;41.47;26.40;;;;;;;1.41;100.00;98406.34;5062545;28;20526;-75
2024/01/19 06:24:35;;;;;;;43.67;27.15;;;;;;;1.46;100.00;98408.59;5056934;28;20024;-74
2024/01/19 06:27:00;;;;;;;40.08;25.17;;;;;;;1.48;100.00;98410.13;5055751;28;20560;-72
2024/01/19 06:29:26;;;;;;;34.58;24.58;;;;;;;1.52;100.00;98418.53;5054514;28;20040;-75
2024/01/19 06:31:52;;;;;;;35.65;25.23;;;;;;;1.54;100.00;98421.81;5053340;28;20036;-74
2024/01/19 06:34:18;;;;;;;37.55;25.83;;;;;;;1.57;100.00;98424.22;5058370;28;20033;-76
2024/01/19 06:36:46;;;;;;;36.03;25.92;;;;;;;1.57;100.00;98432.00;5052372;28;20043;-75
2024/01/19 06:39:15;;;;;;;39.10;26.15;;;;;;;1.55;100.00;98431.28;5047596;28;20087;-74
2024/01/19 06:41:44;;;;;;;39.42;25.38;;;;;;;1.56;100.00;98430.34;5053166;28;20025;-74
2024/01/19 06:44:13;;;;;;;39.33;26.35;;;;;;;1.61;100.00;98449.03;5061372;28;20060;-74
2024/01/19 06:46:43;;;;;;;41.72;26.00;;;;;;;1.68;100.00;98437.25;5064244;28;20021;-74
2024/01/19 06:49:08;;;;;;;39.53;26.58;;;;;;;1.73;100.00;98432.53;5060531;28;20488;-74
2024/01/19 06:51:34;;;;;;;37.53;25.90;;;;;;;1.76;100.00;98416.72;5063426;28;20052;-73
2024/01/19 06:53:59;;;;;;;37.88;25.50;;;;;;;1.75;100.00;98429.81;5058589;28;20033;-75
2024/01/19 06:56:25;;;;;;;35.17;23.85;;;;;;;1.83;100.00;98428.28;5059478;28;20060;-73
2024/01/19 06:58:51;;;;;;;33.53;24.40;;;;;;;1.86;100.00;98428.06;5059118;28;20037;-73
2024/01/19 07:01:17;;;;;;;33.63;24.88;;;;;;;1.86;100.00;98420.25;5060002;28;20064;-73
2024/01/19 07:03:43;;;;;;;31.63;23.27;;;;;;;1.82;100.00;98437.06;5061912;28;20057;-73
2024/01/19 07:06:08;;;;;;;37.50;25.13;;;;;;;1.78;100.00;98433.00;5057564;28;20066;-75
2024/01/19 07:08:34;;;;;;;38.15;25.83;;;;;;;1.75;100.00;98428.03;5056634;28;20485;-71
2024/01/19 07:10:59;;;;;;;36.97;25.42;;;;;;;1.66;100.00;98436.50;5065065;28;20119;-73
2024/01/19 07:13:25;;;;;;;37.75;25.67;;;;;;;1.65;100.00;98440.06;5054835;28;20037;-73
2024/01/19 07:15:50;;;;;;;37.80;26.08;;;;;;;1.63;100.00;98454.97;5058369;28;20124;-73
2024/01/19 07:18:16;;;;;;;45.67;28.63;;;;;;;1.58;100.00;98455.31;5064561;28;20040;-74
2024/01/19 07:20:42;;;;;;;44.25;27.60;;;;;;;1.56;100.00;98466.75;5064319;28;20588;-73
2024/01/19 07:23:07;;;;;;;40.40;28.10;;;;;;;1.48;100.00;98466.47;5060699;28;20483;-73
2024/01/19 07:25:33;;;;;;;43.28;28.88;;;;;;;1.47;100.00;98477.84;5058414;28;20133;-73
2024/01/19 07:27:58;;;;;;;47.20;29.40;;;;;;;1.53;100.00;98487.78;5059845;28;20032;-74
2024/01/19 07:30:24;;;;;;;52.50;30.35;;;;;;;1.53;100.00;98493.00;5052277;28;20111;-75
2024/01/19 07:32:49;;;;;;;47.85;31.02;;;;;;;1.55;100.00;98501.50;5059342;28;20120;-72
2024/01/19 07:35:15;;;;;;;49.53;28.58;;;;;;;1.55;100.00;98496.28;5057624;28;20020;-74
2024/01/19 07:37:40;;;;;;;52.95;31.83;;;;;;;1.55;100.00;98506.69;5063579;28;20029;-74
2024/01/19 07:40:06;;;;;;;44.75;29.55;;;;;;;1.53;100.00;98511.19;5060506;28;20425;-75
2024/01/19 07:42:32;;;;;;;50.55;28.98;;;;;;;1.53;100.00;98521.59;5057717;28;20040;-75
2024/01/19 07:44:57;;;;;;;47.35;29.00;;;;;;;1.50;100.00;98519.19;5052473;28;20029;-74
2024/01/19 07:47:24;;;;;;;41.33;28.38;;;;;;;1.54;100.00;98515.41;5061937;28;20028;-77
2024/01/19 07:49:49;;;;;;;42.25;28.25;;;;;;;1.60;100.00;98520.19;5062873;28;20052;-77
2024/01/19 07:52:15;;;;;;;44.40;28.08;;;;;;;1.69;100.00;98522.13;5058691;28;20068;-75
2024/01/19 07:54:42;;;;;;;43.28;27.20;;;;;;;1.76;100.00;98525.94;5062439;28;20051;-76
2024/01/19 07:57:08;;;;;;;38.40;25.88;;;;;;;1.81;100.00;98536.84;5055131;28;20453;-73
2024/01/19 07:59:34;;;;;;;35.88;24.38;;;;;;;1.88;100.00;98545.00;5061337;28;20229;-73
2024/01/19 08:02:00;;;;;;;43.40;27.35;;;;;;;1.89;100.00;98563.09;5056908;28;20124;-78
2024/01/19 08:04:26;;;;;;;39.40;25.98;;;;;;;1.96;100.00;98564.31;5054536;28;20021;-77
2024/01/19 08:06:51;;;;;;;38.53;25.35;;;;;;;2.03;100.00;98557.72;5056513;28;20329;-76
2024/01/19 08:09:16;;;;;;;43.75;27.40;;;;;;;2.09;100.00;98576.41;5056900;28;20115;-76
2024/01/19 08:11:42;;;;;;;37.22;26.05;;;;;;;2.13;100.00;98575.22;5061094;28;20070;-74
2024/01/19 08:14:08;;;;;;;36.40;25.08;;;;;;;2.13;100.00;98577.84;5057645;28;20388;-77
2024/01/19 08:16:33;;;;;;;39.97;25.42;;;;;;;2.20;100.00;98576.44;5060788;28;20500;-75
2024/01/19 08:18:59;;;;;;;38.03;25.55;;;;;;;2.27;100.00;98577.66;5061415;28;20024;-75
2024/01/19 08:21:25;;;;;;;36.53;23.95;;;;;;;2.30;100.00;98577.41;5056545;28;20041;-76
2024/01/19 08:23:50;;;;;;;40.05;26.90;;;;;;;2.34;100.00;98584.06;5060486;28;20104;-76
2024/01/19 08:26:19;;;;;;;35.33;24.77;;;;;;;2.37;100.00;98589.03;5059580;28;20102;-76
2024/01/19 08:28:46;;;;;;;47.28;28.27;;;;;;;2.41;100.00;98598.28;5061898;28;20035;-76
2024/01/19 08:31:13;;;;;;;48.90;30.17;;;;;;;2.40;100.00;98604.44;5060494;28;20134;-77
2024/01/19 08:33:38;;;;;;;49.33;30.17;;;;;;;2.38;100.00;98609.75;5059937;28;20036;-76
2024/01/19 08:36:04;;;;;;;50.63;30.08;;;;;;;2.39;100.00;98613.19;5059876;28;20481;-75
2024/01/19 08:38:30;;;;;;;51.15;28.02;;;;;;;2.33;100.00;98605.81;5060802;28;20037;-76
2024/01/19 08:40:55;;;;;;;46.58;27.52;;;;;;;2.34;100.00;98612.69;5060062;28;20132;-77
2024/01/19 08:43:21;;;;;;;52.75;27.85;;;;;;;2.23;100.00;98628.28;5060140;28;20029;-75
2024/01/19 08:45:46;;;;;;;45.22;26.95;;;;;;;2.33;100.00;98640.50;5057892;28;20421;-74
2024/01/19 08:48:12;;;;;;;44.15;26.75;;;;;;;2.39;100.00;98639.22;5057342;28;20025;-75
2024/01/19 08:50:38;;;;;;;40.30;23.75;;;;;;;2.35;100.00;98658.63;5061048;28;20384;-75
2024/01/19 08:53:04;;;;;;;39.95;24.65;;;;;;;2.39;100.00;98657.44;5044294;28;20055;-74
2024/01/19 08:55:29;;;;;;;44.28;24.20;;;;;;;2.25;100.00;98662.81;5060159;28;20028;-75
2024/01/19 08:57:55;;;;;;;39.72;25.55;;;;;;;2.26;100.00;98675.72;5060366;28;20033;-75
2024/01/19 09:00:22;;;;;;;44.05;25.05;;;;;;;2.33;100.00;98679.56;5059389;28;20043;-76
2024/01/19 09:02:48;;;;;;;54.08;24.15;;;;;;;2.27;100.00;98684.38;5058604;28;20021;-75
2024/01/19 09:05:14;;;;;;;42.42;24.85;;;;;;;2.38;100.00;98685.25;5061455;28;20101;-75
2024/01/19 09:07:40;;;;;;;59.17;24.83;;;;;;;2.16;100.00;98687.75;5053315;28;20037;-76
2024/01/19 09:10:07;;;;;;;42.75;25.98;;;;;;;2.26;100.00;98691.34;5059137;28;20035;-74
2024/01/19 09:12:33;;;;;;;56.20;27.92;;;;;;;2.24;100.00;98695.03;5060523;28;20106;-75
2024/01/19 09:14:58;;;;;;;48.95;25.92;;;;;;;2.26;100.00;98698.31;5057902;28;20167;-75
2024/01/19 09:17:23;;;;;;;43.38;25.45;;;;;;;2.30;100.00;98698.00;5057786;28;20964;-75
2024/01/19 09:19:49;;;;;;;44.58;27.00;;;;;;;2.40;100.00;98704.22;5060217;28;20036;-76
2024/01/19 09:22:14;;;;;;;46.55;26.73;;;;;;;2.44;100.00;98710.00;5057110;28;20025;-77
2024/01/19 09:24:40;;;;;;;42.58;24.55;;;;;;;2.40;100.00;98713.78;5061699;28;20119;-74
2024/01/19 09:27:05;;;;;;;39.88;24.58;;;;;;;2.41;100.00;98710.25;5060380;28;20056;-75
2024/01/19 09:29:30;;;;;;;52.90;25.63;;;;;;;2.45;100.00;98722.09;5058359;28;20516;-74
2024/01/19 09:31:56;;;;;;;47.55;24.73;;;;;;;2.41;100.00;98726.69;5057264;28;20040;-76
2024/01/19 09:34:22;;;;;;;47.58;25.98;;;;;;;2.41;100.00;98744.94;5057715;28;20151;-76
2024/01/19 09:36:48;;;;;;;42.17;25.42;;;;;;;2.46;100.00;98752.41;5057150;28;20074;-76
2024/01/19 09:39:14;;;;;;;42.53;25.10;;;;;;;2.54;100.00;98757.84;5054044;28;20128;-76
2024/01/19 09:42:02;;;;;;;42.78;25.30;;;;;;;2.59;100.00;98753.19;5060510;28;20029;-75
2024/01/19 09:44:33;;;;;;;43.28;24.92;;;;;;;2.65;100.00;98765.72;5055736;28;20040;-76
2024/01/19 09:47:21;;;;;;;39.13;24.77;;;;;;;2.72;100.00;98776.53;5059344;28;20044;-75
2024/01/19 09:50:03;;;;;;;42.42;24.52;;;;;;;2.82;100.00;98782.75;5053095;28;20056;-76
2024/01/19 09:53:10;;;;;;;41.17;24.05;;;;;;;2.86;100.00;98779.78;5054610;28;20723;-76
2024/01/19 09:55:36;;;;;;;36.30;23.55;;;;;;;2.94;100.00;98789.66;4956995;28;20039;-76
2024/01/19 09:58:01;;;;;;;44.33;24.38;;;;;;;2.96;100.00;98797.34;4959222;28;20385;-73
2024/01/19 10:00:28;;;;;;;40.58;23.77;;;;;;;2.97;100.00;98812.03;4959798;28;20035;-73
2024/01/19 10:02:54;;;;;;;40.30;23.23;;;;;;;2.95;100.00;98808.69;4959782;28;20044;-75
2024/01/19 10:05:21;;;;;;;37.97;24.20;;;;;;;3.00;100.00;98811.81;4966436;28;20052;-75
2024/01/19 10:07:48;;;;;;;36.28;23.38;;;;;;;3.03;100.00;98814.19;4965464;28;20031;-74
2024/01/19 10:10:17;;;;;;;36.55;23.08;;;;;;;3.08;100.00;98827.72;4967404;28;20087;-75
2024/01/19 10:12:43;;;;;;;43.15;22.65;;;;;;;3.11;100.00;98835.31;4963443;28;20042;-75
2024/01/19 10:15:13;;;;;;;39.72;23.73;;;;;;;3.12;100.00;98848.22;4968118;28;20445;-79
2024/01/19 10:17:40;;;;;;;38.88;23.13;;;;;;;3.15;100.00;98855.00;4988981;22;20051;-78
2024/01/19 10:20:06;;;;;;;39.92;23.83;;;;;;;3.22;100.00;98858.81;5063484;28;20086;-80
2024/01/19 10:22:35;;;;;;;45.45;23.60;;;;;;;3.31;100.00;98863.34;5065115;28;20033;-79
2024/01/19 10:25:03;;;;;;;37.75;23.80;;;;;;;3.29;100.00;98852.22;5069014;28;20048;-79
2024/01/19 10:27:51;;;;;;;37.65;22.55;;;;;;;3.34;100.00;98864.91;5065024;28;20028;-80
2024/01/19 10:30:27;;;;;;;37.25;22.65;;;;;;;3.38;100.00;98869.75;5071387;28;20044;-80
2024/01/19 10:33:05;;;;;;;38.47;22.73;;;;;;;3.49;100.00;98872.41;5067993;28;20107;-79
2024/01/19 10:35:32;;;;;;;51.42;23.50;;;;;;;3.54;100.00;98875.47;5070847;28;20394;-79
2024/01/19 10:38:06;;;;;;;42.42;25.13;;;;;;;3.54;100.00;98870.28;5065975;28;20028;-79
2024/01/19 10:40:33;;;;;;;44.33;25.00;;;;;;;3.53;100.00;98884.28;5069706;28;20119;-79
2024/01/19 10:42:59;;;;;;;44.25;25.35;;;;;;;3.55;100.00;98876.31;5069127;28;20029;-80
2024/01/19 10:45:27;;;;;;;42.67;23.90;;;;;;;3.68;100.00;98883.13;5066266;28;20033;-79
2024/01/19 10:47:57;;;;;;;43.55;24.25;;;;;;;3.74;100.00;98888.81;5051504;28;20028;-79
2024/01/19 10:50:28;;;;;;;;;;;;;;;3.62;100.00;98898.41;5068835;28;20028;-80
2024/01/19 10:52:55;;;;;;;41.35;22.58;;;;;;;3.61;100.00;98892.34;5066405;28;19928;-79
2024/01/19 10:55:21;;;;;;;42.63;23.85;;;;;;;3.66;100.00;98894.59;5068734;28;20380;-77
2024/01/19 10:57:50;;;;;;;39.42;24.13;;;;;;;3.75;100.00;98893.09;5071338;28;20040;-80
2024/01/19 11:00:20;;;;;;;44.40;24.92;;;;;;;3.84;100.00;98898.44;5067440;28;20029;-79
2024/01/19 11:02:59;;;;;;;46.97;26.42;;;;;;;3.85;100.00;98904.50;5066437;28;20031;-79
2024/01/19 11:05:26;;;;;;;42.83;25.50;;;;;;;3.88;100.00;98906.88;5048068;28;20071;-79
2024/01/19 11:07:59;;;;;;;48.97;27.02;;;;;;;4.03;100.00;98903.09;5070557;28;20033;-78
2024/01/19 11:10:31;;;;;;;47.25;27.10;;;;;;;4.02;100.00;98917.09;5049197;28;20238;-79
2024/01/19 11:12:58;;;;;;;49.30;28.35;;;;;;;4.09;100.00;98921.72;5048445;28;20032;-78